This is the latest recevied weather packets stored in our database for station/object KB1FPD. If no packets are shown the sender has not sent any weather packets the latest 10 day(s).
| Time | Temp. | Humidity | Pressure | Rain* | Wind** | Luminosity | Snow |
|---|---|---|---|---|---|---|---|
| 1778158506 | 10° C | 59% | 1013.4 hPa | 0 mm | - | - | - |
| 1778158204 | 10° C | 62% | 1013.2 hPa | 0 mm | - | - | - |
| 1778157905 | 10° C | 62% | 1013.2 hPa | 0 mm | - | - | - |
| 1778157605 | 9.44° C | 65% | 1013.2 hPa | 0 mm | - | - | - |
| 1778157305 | 9.44° C | 66% | 1013.1 hPa | 0 mm | - | - | - |
| 1778157006 | 9.44° C | 67% | 1012.8 hPa | 0 mm | - | - | - |
| 1778156703 | 9.44° C | 69% | 1012.8 hPa | 0 mm | - | - | - |
| 1778156396 | 9.44° C | 68% | 1012.8 hPa | 0 mm | - | - | - |
| 1778156096 | 9.44° C | 68% | 1012.7 hPa | 0 mm | - | - | - |
| 1778155797 | 9.44° C | 69% | 1012.7 hPa | 0 mm | - | - | - |
| 1778155498 | 9.44° C | 69% | 1012.9 hPa | 0 mm | - | - | - |
| 1778155197 | 9.44° C | 74% | 1012.8 hPa | 0 mm | - | - | - |
| 1778154897 | 8.89° C | 71% | 1013.1 hPa | 0 mm | - | - | - |
| 1778154598 | 8.89° C | 70% | 1013.1 hPa | 0 mm | - | - | - |
| 1778154297 | 8.89° C | 69% | 1013.1 hPa | 0 mm | - | - | - |
| 1778153997 | 8.89° C | 67% | 1013.2 hPa | 0 mm | - | - | - |
| 1778153696 | 8.89° C | 66% | 1013.1 hPa | 0 mm | - | - | - |
| 1778153398 | 8.89° C | 66% | 1013.1 hPa | 0 mm | - | - | - |
| 1778153096 | 8.89° C | 70% | 1012.9 hPa | 0 mm | - | - | - |
| 1778152796 | 8.89° C | 68% | 1013.1 hPa | 0 mm | - | - | - |
| 1778152496 | 8.89° C | 67% | 1012.8 hPa | 0 mm | - | - | - |
| 1778152196 | 8.89° C | 68% | 1012.8 hPa | 0 mm | - | - | - |
| 1778151893 | 8.89° C | 66% | 1012.8 hPa | 0 mm | - | - | - |
| 1778151588 | 8.89° C | 68% | 1012.7 hPa | 0 mm | - | - | - |
| 1778151289 | 8.89° C | 68% | 1012.6 hPa | 0 mm | - | - | - |
* Rain latest hour (hover to see other rain measurements)
** Current wind speed in m/s (hover to see current wind gust speed)